sensor_id;sensor_type;location;lat;lon;timestamp;P1;durP1;ratioP1;P2;durP2;ratioP2
22715;SDS011;11525;51.152;4.456;2024-03-08T00:00:40;65.22;;;45.05;;
22715;SDS011;11525;51.152;4.456;2024-03-08T00:03:08;66.15;;;42.67;;
22715;SDS011;11525;51.152;4.456;2024-03-08T00:05:35;65.90;;;43.83;;
22715;SDS011;11525;51.152;4.456;2024-03-08T00:08:03;66.85;;;46.15;;
22715;SDS011;11525;51.152;4.456;2024-03-08T00:10:30;65.30;;;44.65;;
22715;SDS011;11525;51.152;4.456;2024-03-08T00:12:55;72.57;;;45.35;;
22715;SDS011;11525;51.152;4.456;2024-03-08T00:15:22;67.13;;;43.00;;
22715;SDS011;11525;51.152;4.456;2024-03-08T00:17:48;72.38;;;44.38;;
22715;SDS011;11525;51.152;4.456;2024-03-08T00:20:14;68.22;;;44.17;;
22715;SDS011;11525;51.152;4.456;2024-03-08T00:22:43;68.05;;;43.78;;
22715;SDS011;11525;51.152;4.456;2024-03-08T00:25:08;71.28;;;45.65;;
22715;SDS011;11525;51.152;4.456;2024-03-08T00:27:35;66.38;;;42.78;;
22715;SDS011;11525;51.152;4.456;2024-03-08T00:30:01;68.15;;;43.53;;
22715;SDS011;11525;51.152;4.456;2024-03-08T00:32:28;65.93;;;42.10;;
22715;SDS011;11525;51.152;4.456;2024-03-08T00:34:54;65.80;;;41.30;;
22715;SDS011;11525;51.152;4.456;2024-03-08T00:37:20;71.88;;;47.08;;
22715;SDS011;11525;51.152;4.456;2024-03-08T00:39:49;65.70;;;44.00;;
22715;SDS011;11525;51.152;4.456;2024-03-08T00:42:15;68.72;;;42.15;;
22715;SDS011;11525;51.152;4.456;2024-03-08T00:44:41;65.55;;;42.05;;
22715;SDS011;11525;51.152;4.456;2024-03-08T00:47:07;66.82;;;41.42;;
22715;SDS011;11525;51.152;4.456;2024-03-08T00:49:33;73.07;;;42.75;;
22715;SDS011;11525;51.152;4.456;2024-03-08T00:51:59;64.95;;;43.10;;
22715;SDS011;11525;51.152;4.456;2024-03-08T00:54:24;65.47;;;41.47;;
22715;SDS011;11525;51.152;4.456;2024-03-08T00:56:50;60.30;;;42.72;;
22715;SDS011;11525;51.152;4.456;2024-03-08T00:59:16;63.47;;;43.25;;
22715;SDS011;11525;51.152;4.456;2024-03-08T01:01:41;59.15;;;40.78;;
22715;SDS011;11525;51.152;4.456;2024-03-08T01:04:09;66.55;;;40.00;;
22715;SDS011;11525;51.152;4.456;2024-03-08T01:06:35;65.50;;;40.05;;
22715;SDS011;11525;51.152;4.456;2024-03-08T01:09:02;60.53;;;40.20;;
22715;SDS011;11525;51.152;4.456;2024-03-08T01:11:28;62.60;;;40.72;;
22715;SDS011;11525;51.152;4.456;2024-03-08T01:13:54;59.83;;;40.35;;
22715;SDS011;11525;51.152;4.456;2024-03-08T01:16:19;56.67;;;39.22;;
22715;SDS011;11525;51.152;4.456;2024-03-08T01:18:46;55.13;;;39.80;;
22715;SDS011;11525;51.152;4.456;2024-03-08T01:21:12;61.70;;;41.58;;
22715;SDS011;11525;51.152;4.456;2024-03-08T01:23:38;61.38;;;39.58;;
22715;SDS011;11525;51.152;4.456;2024-03-08T01:26:03;54.55;;;38.05;;
22715;SDS011;11525;51.152;4.456;2024-03-08T01:28:29;57.38;;;40.17;;
22715;SDS011;11525;51.152;4.456;2024-03-08T01:30:55;54.95;;;40.55;;
22715;SDS011;11525;51.152;4.456;2024-03-08T01:33:22;56.88;;;38.95;;
22715;SDS011;11525;51.152;4.456;2024-03-08T01:35:48;55.00;;;38.08;;
22715;SDS011;11525;51.152;4.456;2024-03-08T01:38:14;63.97;;;38.72;;
22715;SDS011;11525;51.152;4.456;2024-03-08T01:40:40;57.65;;;35.85;;
22715;SDS011;11525;51.152;4.456;2024-03-08T01:43:19;52.92;;;34.58;;
22715;SDS011;11525;51.152;4.456;2024-03-08T01:45:53;50.10;;;35.25;;
22715;SDS011;11525;51.152;4.456;2024-03-08T01:48:21;55.00;;;38.92;;
22715;SDS011;11525;51.152;4.456;2024-03-08T01:50:49;55.53;;;37.45;;
22715;SDS011;11525;51.152;4.456;2024-03-08T01:53:15;54.45;;;38.88;;
22715;SDS011;11525;51.152;4.456;2024-03-08T01:55:42;51.83;;;37.85;;
22715;SDS011;11525;51.152;4.456;2024-03-08T01:58:11;51.60;;;37.28;;
22715;SDS011;11525;51.152;4.456;2024-03-08T02:00:40;52.15;;;37.95;;
22715;SDS011;11525;51.152;4.456;2024-03-08T02:03:10;52.03;;;37.15;;
22715;SDS011;11525;51.152;4.456;2024-03-08T02:05:36;49.78;;;36.05;;
22715;SDS011;11525;51.152;4.456;2024-03-08T02:08:03;47.60;;;37.17;;
22715;SDS011;11525;51.152;4.456;2024-03-08T02:10:32;50.25;;;36.65;;
22715;SDS011;11525;51.152;4.456;2024-03-08T02:12:59;47.67;;;35.85;;
22715;SDS011;11525;51.152;4.456;2024-03-08T02:15:49;51.45;;;37.58;;
22715;SDS011;11525;51.152;4.456;2024-03-08T02:18:20;44.50;;;35.78;;
22715;SDS011;11525;51.152;4.456;2024-03-08T02:20:47;49.22;;;36.42;;
22715;SDS011;11525;51.152;4.456;2024-03-08T02:23:14;49.78;;;37.40;;
22715;SDS011;11525;51.152;4.456;2024-03-08T02:25:40;45.55;;;35.20;;
22715;SDS011;11525;51.152;4.456;2024-03-08T02:28:08;46.00;;;35.63;;
22715;SDS011;11525;51.152;4.456;2024-03-08T02:30:36;43.65;;;35.45;;
22715;SDS011;11525;51.152;4.456;2024-03-08T02:33:01;47.65;;;35.88;;
22715;SDS011;11525;51.152;4.456;2024-03-08T02:35:27;49.47;;;37.15;;
22715;SDS011;11525;51.152;4.456;2024-03-08T02:37:53;44.53;;;33.85;;
22715;SDS011;11525;51.152;4.456;2024-03-08T02:40:18;47.42;;;35.83;;
22715;SDS011;11525;51.152;4.456;2024-03-08T02:42:44;50.38;;;37.55;;
22715;SDS011;11525;51.152;4.456;2024-03-08T02:45:10;49.42;;;37.35;;
22715;SDS011;11525;51.152;4.456;2024-03-08T02:47:35;45.83;;;37.05;;
22715;SDS011;11525;51.152;4.456;2024-03-08T02:50:01;47.33;;;37.30;;
22715;SDS011;11525;51.152;4.456;2024-03-08T02:52:28;48.53;;;39.28;;
22715;SDS011;11525;51.152;4.456;2024-03-08T02:54:54;45.88;;;35.97;;
22715;SDS011;11525;51.152;4.456;2024-03-08T02:57:20;47.22;;;36.38;;
22715;SDS011;11525;51.152;4.456;2024-03-08T02:59:46;48.63;;;38.28;;
22715;SDS011;11525;51.152;4.456;2024-03-08T03:02:11;47.65;;;35.25;;
22715;SDS011;11525;51.152;4.456;2024-03-08T03:04:39;50.00;;;37.88;;
22715;SDS011;11525;51.152;4.456;2024-03-08T03:07:05;46.40;;;36.10;;
22715;SDS011;11525;51.152;4.456;2024-03-08T03:09:31;49.33;;;35.58;;
22715;SDS011;11525;51.152;4.456;2024-03-08T03:11:58;44.78;;;35.60;;
22715;SDS011;11525;51.152;4.456;2024-03-08T03:14:24;44.10;;;35.70;;
22715;SDS011;11525;51.152;4.456;2024-03-08T03:16:51;45.80;;;36.65;;
22715;SDS011;11525;51.152;4.456;2024-03-08T03:19:17;48.55;;;36.55;;
22715;SDS011;11525;51.152;4.456;2024-03-08T03:21:43;46.67;;;36.15;;
22715;SDS011;11525;51.152;4.456;2024-03-08T03:24:09;43.60;;;36.85;;
22715;SDS011;11525;51.152;4.456;2024-03-08T03:26:38;43.40;;;35.38;;
22715;SDS011;11525;51.152;4.456;2024-03-08T03:29:05;48.20;;;36.75;;
22715;SDS011;11525;51.152;4.456;2024-03-08T03:31:33;46.78;;;36.67;;
22715;SDS011;11525;51.152;4.456;2024-03-08T03:33:59;47.55;;;37.33;;
22715;SDS011;11525;51.152;4.456;2024-03-08T03:36:30;46.03;;;36.88;;
22715;SDS011;11525;51.152;4.456;2024-03-08T03:38:56;48.78;;;37.20;;
22715;SDS011;11525;51.152;4.456;2024-03-08T03:41:32;44.05;;;35.47;;
22715;SDS011;11525;51.152;4.456;2024-03-08T03:43:57;42.50;;;36.15;;
22715;SDS011;11525;51.152;4.456;2024-03-08T03:46:24;42.75;;;34.30;;
22715;SDS011;11525;51.152;4.456;2024-03-08T03:48:51;43.17;;;35.03;;
22715;SDS011;11525;51.152;4.456;2024-03-08T03:51:16;43.42;;;33.83;;
22715;SDS011;11525;51.152;4.456;2024-03-08T03:53:42;41.63;;;34.83;;
22715;SDS011;11525;51.152;4.456;2024-03-08T03:56:08;46.83;;;33.85;;
22715;SDS011;11525;51.152;4.456;2024-03-08T03:58:33;40.42;;;32.75;;
22715;SDS011;11525;51.152;4.456;2024-03-08T04:00:59;43.10;;;32.40;;
22715;SDS011;11525;51.152;4.456;2024-03-08T04:03:25;43.17;;;31.60;;
22715;SDS011;11525;51.152;4.456;2024-03-08T04:05:50;48.15;;;32.35;;
22715;SDS011;11525;51.152;4.456;2024-03-08T04:08:17;41.53;;;31.27;;
22715;SDS011;11525;51.152;4.456;2024-03-08T04:10:42;40.40;;;33.72;;
22715;SDS011;11525;51.152;4.456;2024-03-08T04:13:08;41.15;;;34.00;;
22715;SDS011;11525;51.152;4.456;2024-03-08T04:15:37;40.30;;;33.53;;
22715;SDS011;11525;51.152;4.456;2024-03-08T04:18:03;41.13;;;34.10;;
22715;SDS011;11525;51.152;4.456;2024-03-08T04:20:29;43.78;;;34.90;;
22715;SDS011;11525;51.152;4.456;2024-03-08T04:22:55;43.63;;;34.20;;
22715;SDS011;11525;51.152;4.456;2024-03-08T04:25:21;40.90;;;32.55;;
22715;SDS011;11525;51.152;4.456;2024-03-08T04:27:47;42.80;;;35.22;;
22715;SDS011;11525;51.152;4.456;2024-03-08T04:30:14;42.63;;;33.92;;
22715;SDS011;11525;51.152;4.456;2024-03-08T04:32:40;43.25;;;33.72;;
22715;SDS011;11525;51.152;4.456;2024-03-08T04:35:08;40.70;;;33.40;;
22715;SDS011;11525;51.152;4.456;2024-03-08T04:37:34;47.70;;;35.08;;
22715;SDS011;11525;51.152;4.456;2024-03-08T04:40:00;45.50;;;35.85;;
22715;SDS011;11525;51.152;4.456;2024-03-08T04:42:28;46.80;;;36.50;;
22715;SDS011;11525;51.152;4.456;2024-03-08T04:44:55;45.88;;;36.35;;
22715;SDS011;11525;51.152;4.456;2024-03-08T04:47:20;40.53;;;34.58;;
22715;SDS011;11525;51.152;4.456;2024-03-08T04:49:46;45.35;;;34.13;;
22715;SDS011;11525;51.152;4.456;2024-03-08T04:52:12;43.92;;;35.95;;
22715;SDS011;11525;51.152;4.456;2024-03-08T04:54:38;44.03;;;34.50;;
22715;SDS011;11525;51.152;4.456;2024-03-08T04:57:04;45.67;;;35.38;;
22715;SDS011;11525;51.152;4.456;2024-03-08T04:59:29;45.88;;;35.38;;
22715;SDS011;11525;51.152;4.456;2024-03-08T05:01:55;41.88;;;34.83;;
22715;SDS011;11525;51.152;4.456;2024-03-08T05:04:21;44.90;;;34.95;;
22715;SDS011;11525;51.152;4.456;2024-03-08T05:06:47;45.10;;;35.53;;
22715;SDS011;11525;51.152;4.456;2024-03-08T05:09:13;44.55;;;34.78;;
22715;SDS011;11525;51.152;4.456;2024-03-08T05:11:43;45.75;;;34.60;;
22715;SDS011;11525;51.152;4.456;2024-03-08T05:14:11;42.42;;;33.13;;
22715;SDS011;11525;51.152;4.456;2024-03-08T05:16:44;35.70;;;30.63;;
22715;SDS011;11525;51.152;4.456;2024-03-08T05:19:13;42.55;;;37.05;;
22715;SDS011;11525;51.152;4.456;2024-03-08T05:21:45;43.03;;;34.70;;
22715;SDS011;11525;51.152;4.456;2024-03-08T05:24:12;43.90;;;35.85;;
22715;SDS011;11525;51.152;4.456;2024-03-08T05:26:40;41.67;;;35.22;;
22715;SDS011;11525;51.152;4.456;2024-03-08T05:29:06;44.63;;;34.13;;
22715;SDS011;11525;51.152;4.456;2024-03-08T05:34:29;47.42;;;35.95;;
22715;SDS011;11525;51.152;4.456;2024-03-08T05:36:55;43.22;;;33.67;;
22715;SDS011;11525;51.152;4.456;2024-03-08T05:39:21;46.40;;;34.22;;
22715;SDS011;11525;51.152;4.456;2024-03-08T05:41:49;48.53;;;35.22;;
22715;SDS011;11525;51.152;4.456;2024-03-08T05:44:15;43.03;;;33.40;;
22715;SDS011;11525;51.152;4.456;2024-03-08T05:46:44;45.88;;;32.20;;
22715;SDS011;11525;51.152;4.456;2024-03-08T05:49:11;45.22;;;32.60;;
22715;SDS011;11525;51.152;4.456;2024-03-08T05:51:38;41.78;;;30.27;;
22715;SDS011;11525;51.152;4.456;2024-03-08T05:54:05;44.95;;;34.17;;
22715;SDS011;11525;51.152;4.456;2024-03-08T05:56:33;48.05;;;35.55;;
22715;SDS011;11525;51.152;4.456;2024-03-08T05:59:00;50.22;;;37.00;;
22715;SDS011;11525;51.152;4.456;2024-03-08T06:01:26;46.30;;;37.15;;
22715;SDS011;11525;51.152;4.456;2024-03-08T06:03:53;46.40;;;36.35;;
22715;SDS011;11525;51.152;4.456;2024-03-08T06:06:21;42.90;;;34.28;;
22715;SDS011;11525;51.152;4.456;2024-03-08T06:08:47;44.97;;;35.33;;
22715;SDS011;11525;51.152;4.456;2024-03-08T06:11:17;48.00;;;35.17;;
22715;SDS011;11525;51.152;4.456;2024-03-08T06:13:44;46.88;;;36.25;;
22715;SDS011;11525;51.152;4.456;2024-03-08T06:16:10;45.95;;;35.20;;
22715;SDS011;11525;51.152;4.456;2024-03-08T06:18:36;46.72;;;36.08;;
22715;SDS011;11525;51.152;4.456;2024-03-08T06:21:05;46.42;;;36.03;;
22715;SDS011;11525;51.152;4.456;2024-03-08T06:23:32;44.35;;;35.35;;
22715;SDS011;11525;51.152;4.456;2024-03-08T06:25:58;46.30;;;36.08;;
22715;SDS011;11525;51.152;4.456;2024-03-08T06:28:24;43.65;;;34.78;;
22715;SDS011;11525;51.152;4.456;2024-03-08T06:30:50;45.17;;;36.63;;
22715;SDS011;11525;51.152;4.456;2024-03-08T06:33:16;43.92;;;35.72;;
22715;SDS011;11525;51.152;4.456;2024-03-08T06:35:43;49.80;;;36.92;;
22715;SDS011;11525;51.152;4.456;2024-03-08T06:38:08;48.08;;;36.53;;
22715;SDS011;11525;51.152;4.456;2024-03-08T06:40:34;48.40;;;37.10;;
22715;SDS011;11525;51.152;4.456;2024-03-08T06:43:00;44.63;;;36.80;;
22715;SDS011;11525;51.152;4.456;2024-03-08T06:45:26;47.40;;;35.97;;
22715;SDS011;11525;51.152;4.456;2024-03-08T06:47:51;51.88;;;35.40;;
22715;SDS011;11525;51.152;4.456;2024-03-08T06:50:17;44.33;;;34.40;;
22715;SDS011;11525;51.152;4.456;2024-03-08T06:52:43;49.80;;;36.65;;
22715;SDS011;11525;51.152;4.456;2024-03-08T06:55:09;45.20;;;35.17;;
22715;SDS011;11525;51.152;4.456;2024-03-08T06:57:38;49.75;;;36.47;;
22715;SDS011;11525;51.152;4.456;2024-03-08T07:00:09;45.08;;;35.53;;
22715;SDS011;11525;51.152;4.456;2024-03-08T07:02:43;48.92;;;37.13;;
22715;SDS011;11525;51.152;4.456;2024-03-08T07:05:14;42.63;;;34.38;;
22715;SDS011;11525;51.152;4.456;2024-03-08T07:07:41;44.50;;;34.83;;
22715;SDS011;11525;51.152;4.456;2024-03-08T07:10:08;48.45;;;35.10;;
22715;SDS011;11525;51.152;4.456;2024-03-08T07:12:36;46.47;;;33.45;;
22715;SDS011;11525;51.152;4.456;2024-03-08T07:15:03;45.85;;;34.97;;
22715;SDS011;11525;51.152;4.456;2024-03-08T07:17:30;45.25;;;36.65;;
22715;SDS011;11525;51.152;4.456;2024-03-08T07:19:59;43.50;;;35.22;;
22715;SDS011;11525;51.152;4.456;2024-03-08T07:22:31;41.03;;;33.70;;
22715;SDS011;11525;51.152;4.456;2024-03-08T07:24:56;42.10;;;35.20;;
22715;SDS011;11525;51.152;4.456;2024-03-08T07:27:40;44.40;;;34.03;;
22715;SDS011;11525;51.152;4.456;2024-03-08T07:30:06;44.83;;;34.95;;
22715;SDS011;11525;51.152;4.456;2024-03-08T07:32:35;47.95;;;34.72;;
22715;SDS011;11525;51.152;4.456;2024-03-08T07:35:00;43.97;;;34.70;;
22715;SDS011;11525;51.152;4.456;2024-03-08T07:37:28;42.15;;;32.85;;
22715;SDS011;11525;51.152;4.456;2024-03-08T07:39:54;45.45;;;34.88;;
22715;SDS011;11525;51.152;4.456;2024-03-08T07:42:20;38.70;;;32.20;;
22715;SDS011;11525;51.152;4.456;2024-03-08T07:44:46;37.65;;;31.58;;
22715;SDS011;11525;51.152;4.456;2024-03-08T07:47:13;36.20;;;30.70;;
22715;SDS011;11525;51.152;4.456;2024-03-08T07:49:39;36.35;;;29.52;;
22715;SDS011;11525;51.152;4.456;2024-03-08T07:52:05;39.58;;;30.92;;
22715;SDS011;11525;51.152;4.456;2024-03-08T07:54:32;38.72;;;31.58;;
22715;SDS011;11525;51.152;4.456;2024-03-08T07:56:59;36.97;;;30.55;;
22715;SDS011;11525;51.152;4.456;2024-03-08T07:59:24;44.30;;;33.50;;
22715;SDS011;11525;51.152;4.456;2024-03-08T08:01:50;36.28;;;31.63;;
22715;SDS011;11525;51.152;4.456;2024-03-08T08:04:16;36.42;;;30.58;;
22715;SDS011;11525;51.152;4.456;2024-03-08T08:06:43;38.10;;;30.45;;
22715;SDS011;11525;51.152;4.456;2024-03-08T08:09:09;37.95;;;30.48;;
22715;SDS011;11525;51.152;4.456;2024-03-08T08:11:47;37.72;;;29.48;;
22715;SDS011;11525;51.152;4.456;2024-03-08T08:14:12;39.50;;;29.92;;
22715;SDS011;11525;51.152;4.456;2024-03-08T08:16:39;35.70;;;28.50;;
22715;SDS011;11525;51.152;4.456;2024-03-08T08:19:07;34.45;;;28.75;;
22715;SDS011;11525;51.152;4.456;2024-03-08T08:21:36;37.22;;;28.40;;
22715;SDS011;11525;51.152;4.456;2024-03-08T08:24:05;38.85;;;29.25;;
22715;SDS011;11525;51.152;4.456;2024-03-08T08:26:31;34.45;;;26.52;;
22715;SDS011;11525;51.152;4.456;2024-03-08T08:28:59;34.00;;;25.75;;
22715;SDS011;11525;51.152;4.456;2024-03-08T08:31:25;35.13;;;27.75;;
22715;SDS011;11525;51.152;4.456;2024-03-08T08:33:51;34.42;;;27.25;;
22715;SDS011;11525;51.152;4.456;2024-03-08T08:36:23;36.42;;;26.95;;
22715;SDS011;11525;51.152;4.456;2024-03-08T08:38:51;36.50;;;27.35;;
22715;SDS011;11525;51.152;4.456;2024-03-08T08:41:21;37.95;;;28.00;;
22715;SDS011;11525;51.152;4.456;2024-03-08T08:43:47;32.47;;;26.48;;
22715;SDS011;11525;51.152;4.456;2024-03-08T08:46:16;31.60;;;24.95;;
22715;SDS011;11525;51.152;4.456;2024-03-08T08:48:42;33.40;;;26.20;;
22715;SDS011;11525;51.152;4.456;2024-03-08T08:51:10;29.23;;;25.17;;
22715;SDS011;11525;51.152;4.456;2024-03-08T08:53:40;29.65;;;23.00;;
22715;SDS011;11525;51.152;4.456;2024-03-08T08:56:08;33.63;;;25.17;;
22715;SDS011;11525;51.152;4.456;2024-03-08T08:58:34;35.55;;;26.48;;
22715;SDS011;11525;51.152;4.456;2024-03-08T09:01:00;28.52;;;23.20;;
22715;SDS011;11525;51.152;4.456;2024-03-08T09:03:26;29.40;;;24.58;;
22715;SDS011;11525;51.152;4.456;2024-03-08T09:05:53;32.08;;;24.05;;
22715;SDS011;11525;51.152;4.456;2024-03-08T09:08:19;30.42;;;22.42;;
22715;SDS011;11525;51.152;4.456;2024-03-08T09:10:45;30.20;;;23.40;;
22715;SDS011;11525;51.152;4.456;2024-03-08T09:13:13;28.35;;;22.20;;
22715;SDS011;11525;51.152;4.456;2024-03-08T09:15:39;32.00;;;22.27;;
22715;SDS011;11525;51.152;4.456;2024-03-08T09:18:06;31.40;;;22.35;;
22715;SDS011;11525;51.152;4.456;2024-03-08T09:20:33;29.05;;;22.95;;
22715;SDS011;11525;51.152;4.456;2024-03-08T09:22:58;31.13;;;22.20;;
22715;SDS011;11525;51.152;4.456;2024-03-08T09:25:25;31.15;;;22.23;;
22715;SDS011;11525;51.152;4.456;2024-03-08T09:27:51;29.45;;;22.05;;
22715;SDS011;11525;51.152;4.456;2024-03-08T09:30:16;29.15;;;21.88;;
22715;SDS011;11525;51.152;4.456;2024-03-08T09:32:43;27.52;;;22.88;;
22715;SDS011;11525;51.152;4.456;2024-03-08T09:35:08;26.95;;;22.15;;
22715;SDS011;11525;51.152;4.456;2024-03-08T09:37:34;27.95;;;22.48;;
22715;SDS011;11525;51.152;4.456;2024-03-08T09:40:00;25.30;;;20.33;;
22715;SDS011;11525;51.152;4.456;2024-03-08T09:42:29;29.23;;;22.25;;
22715;SDS011;11525;51.152;4.456;2024-03-08T09:44:57;29.02;;;21.35;;
22715;SDS011;11525;51.152;4.456;2024-03-08T09:47:24;29.00;;;22.27;;
22715;SDS011;11525;51.152;4.456;2024-03-08T09:49:54;28.63;;;21.25;;
22715;SDS011;11525;51.152;4.456;2024-03-08T09:52:20;27.13;;;21.27;;
22715;SDS011;11525;51.152;4.456;2024-03-08T09:54:46;26.63;;;21.23;;
22715;SDS011;11525;51.152;4.456;2024-03-08T09:57:11;28.02;;;21.35;;
22715;SDS011;11525;51.152;4.456;2024-03-08T09:59:37;26.40;;;21.20;;
22715;SDS011;11525;51.152;4.456;2024-03-08T10:02:03;28.75;;;20.48;;
22715;SDS011;11525;51.152;4.456;2024-03-08T10:04:29;27.67;;;20.88;;
22715;SDS011;11525;51.152;4.456;2024-03-08T10:06:58;27.77;;;21.35;;
22715;SDS011;11525;51.152;4.456;2024-03-08T10:09:24;26.02;;;20.00;;
22715;SDS011;11525;51.152;4.456;2024-03-08T10:11:58;28.15;;;21.08;;
22715;SDS011;11525;51.152;4.456;2024-03-08T10:14:24;24.98;;;20.25;;
22715;SDS011;11525;51.152;4.456;2024-03-08T10:16:51;26.92;;;19.23;;
22715;SDS011;11525;51.152;4.456;2024-03-08T10:19:18;26.77;;;21.30;;
22715;SDS011;11525;51.152;4.456;2024-03-08T10:21:50;25.15;;;20.10;;
22715;SDS011;11525;51.152;4.456;2024-03-08T10:24:19;28.55;;;20.40;;
22715;SDS011;11525;51.152;4.456;2024-03-08T10:26:45;26.15;;;20.30;;
22715;SDS011;11525;51.152;4.456;2024-03-08T10:29:11;25.10;;;19.98;;
22715;SDS011;11525;51.152;4.456;2024-03-08T10:31:42;26.73;;;21.00;;
22715;SDS011;11525;51.152;4.456;2024-03-08T10:34:09;28.35;;;19.98;;
22715;SDS011;11525;51.152;4.456;2024-03-08T10:36:36;23.70;;;19.63;;
22715;SDS011;11525;51.152;4.456;2024-03-08T10:39:05;24.83;;;19.88;;
22715;SDS011;11525;51.152;4.456;2024-03-08T10:41:40;21.95;;;18.83;;
22715;SDS011;11525;51.152;4.456;2024-03-08T10:46:55;25.92;;;19.88;;
22715;SDS011;11525;51.152;4.456;2024-03-08T10:49:31;25.25;;;19.05;;
22715;SDS011;11525;51.152;4.456;2024-03-08T10:52:04;26.30;;;19.90;;
22715;SDS011;11525;51.152;4.456;2024-03-08T10:54:33;23.65;;;18.50;;
22715;SDS011;11525;51.152;4.456;2024-03-08T10:57:03;26.27;;;19.33;;
22715;SDS011;11525;51.152;4.456;2024-03-08T10:59:31;25.52;;;18.88;;
22715;SDS011;11525;51.152;4.456;2024-03-08T11:01:59;22.75;;;17.88;;
22715;SDS011;11525;51.152;4.456;2024-03-08T11:04:25;27.15;;;20.30;;
22715;SDS011;11525;51.152;4.456;2024-03-08T11:06:51;25.10;;;20.58;;
22715;SDS011;11525;51.152;4.456;2024-03-08T11:14:44;29.60;;;21.75;;
22715;SDS011;11525;51.152;4.456;2024-03-08T11:17:14;27.30;;;21.38;;
22715;SDS011;11525;51.152;4.456;2024-03-08T11:19:46;29.30;;;21.20;;
22715;SDS011;11525;51.152;4.456;2024-03-08T11:22:22;28.27;;;20.98;;
22715;SDS011;11525;51.152;4.456;2024-03-08T11:24:52;26.27;;;20.92;;
22715;SDS011;11525;51.152;4.456;2024-03-08T11:27:18;24.90;;;20.60;;
22715;SDS011;11525;51.152;4.456;2024-03-08T11:29:48;27.25;;;20.88;;
22715;SDS011;11525;51.152;4.456;2024-03-08T11:32:55;27.20;;;20.90;;
22715;SDS011;11525;51.152;4.456;2024-03-08T11:35:28;27.83;;;21.60;;
22715;SDS011;11525;51.152;4.456;2024-03-08T11:37:54;29.88;;;22.10;;
22715;SDS011;11525;51.152;4.456;2024-03-08T11:40:23;24.55;;;21.05;;
22715;SDS011;11525;51.152;4.456;2024-03-08T11:42:49;25.00;;;20.42;;
22715;SDS011;11525;51.152;4.456;2024-03-08T11:45:16;28.00;;;21.63;;
22715;SDS011;11525;51.152;4.456;2024-03-08T11:47:43;28.25;;;21.73;;
22715;SDS011;11525;51.152;4.456;2024-03-08T11:50:11;29.48;;;21.77;;
22715;SDS011;11525;51.152;4.456;2024-03-08T11:52:37;25.95;;;20.30;;
22715;SDS011;11525;51.152;4.456;2024-03-08T11:55:04;27.05;;;19.92;;
22715;SDS011;11525;51.152;4.456;2024-03-08T11:57:30;25.25;;;19.23;;
22715;SDS011;11525;51.152;4.456;2024-03-08T11:59:57;25.27;;;20.58;;
22715;SDS011;11525;51.152;4.456;2024-03-08T12:02:24;26.60;;;19.17;;
22715;SDS011;11525;51.152;4.456;2024-03-08T12:04:56;24.23;;;18.65;;
22715;SDS011;11525;51.152;4.456;2024-03-08T12:07:24;24.75;;;18.25;;
22715;SDS011;11525;51.152;4.456;2024-03-08T12:12:46;24.10;;;18.88;;
22715;SDS011;11525;51.152;4.456;2024-03-08T12:15:13;23.73;;;18.60;;
22715;SDS011;11525;51.152;4.456;2024-03-08T12:17:40;26.73;;;21.02;;
22715;SDS011;11525;51.152;4.456;2024-03-08T12:20:11;26.00;;;19.52;;
22715;SDS011;11525;51.152;4.456;2024-03-08T12:22:50;27.15;;;19.27;;
22715;SDS011;11525;51.152;4.456;2024-03-08T12:25:18;25.83;;;20.38;;
22715;SDS011;11525;51.152;4.456;2024-03-08T12:27:45;24.73;;;20.15;;
22715;SDS011;11525;51.152;4.456;2024-03-08T12:30:24;23.23;;;17.63;;
22715;SDS011;11525;51.152;4.456;2024-03-08T12:32:55;26.52;;;20.88;;
22715;SDS011;11525;51.152;4.456;2024-03-08T12:35:22;26.58;;;18.55;;
22715;SDS011;11525;51.152;4.456;2024-03-08T12:37:50;27.77;;;20.60;;
22715;SDS011;11525;51.152;4.456;2024-03-08T12:40:27;27.00;;;21.15;;
22715;SDS011;11525;51.152;4.456;2024-03-08T12:42:55;24.23;;;19.73;;
22715;SDS011;11525;51.152;4.456;2024-03-08T12:45:21;25.35;;;19.52;;
22715;SDS011;11525;51.152;4.456;2024-03-08T12:47:50;25.45;;;20.40;;
22715;SDS011;11525;51.152;4.456;2024-03-08T12:50:18;32.35;;;21.00;;
22715;SDS011;11525;51.152;4.456;2024-03-08T12:52:44;26.98;;;20.63;;
22715;SDS011;11525;51.152;4.456;2024-03-08T12:55:10;27.45;;;19.83;;
22715;SDS011;11525;51.152;4.456;2024-03-08T12:57:36;25.05;;;20.13;;
22715;SDS011;11525;51.152;4.456;2024-03-08T13:00:03;25.90;;;19.98;;
22715;SDS011;11525;51.152;4.456;2024-03-08T13:02:30;26.15;;;19.83;;
22715;SDS011;11525;51.152;4.456;2024-03-08T13:04:57;29.90;;;19.45;;
22715;SDS011;11525;51.152;4.456;2024-03-08T13:07:23;25.48;;;19.88;;
22715;SDS011;11525;51.152;4.456;2024-03-08T13:09:53;26.30;;;20.42;;
22715;SDS011;11525;51.152;4.456;2024-03-08T13:12:23;26.90;;;20.08;;
22715;SDS011;11525;51.152;4.456;2024-03-08T13:14:49;24.60;;;19.95;;
22715;SDS011;11525;51.152;4.456;2024-03-08T13:17:15;26.58;;;19.67;;
22715;SDS011;11525;51.152;4.456;2024-03-08T13:19:43;26.40;;;20.52;;
22715;SDS011;11525;51.152;4.456;2024-03-08T13:22:09;25.05;;;20.75;;
22715;SDS011;11525;51.152;4.456;2024-03-08T13:24:41;27.55;;;21.90;;
22715;SDS011;11525;51.152;4.456;2024-03-08T13:27:10;25.63;;;20.33;;
22715;SDS011;11525;51.152;4.456;2024-03-08T13:29:47;27.42;;;18.55;;
22715;SDS011;11525;51.152;4.456;2024-03-08T13:32:16;31.60;;;20.63;;
22715;SDS011;11525;51.152;4.456;2024-03-08T13:34:42;27.33;;;21.05;;
22715;SDS011;11525;51.152;4.456;2024-03-08T13:37:09;26.25;;;19.77;;
22715;SDS011;11525;51.152;4.456;2024-03-08T13:39:36;27.13;;;19.67;;
22715;SDS011;11525;51.152;4.456;2024-03-08T13:42:12;27.90;;;19.52;;
22715;SDS011;11525;51.152;4.456;2024-03-08T13:44:43;27.10;;;19.25;;
22715;SDS011;11525;51.152;4.456;2024-03-08T13:47:09;27.05;;;20.15;;
22715;SDS011;11525;51.152;4.456;2024-03-08T13:49:36;27.40;;;19.75;;
22715;SDS011;11525;51.152;4.456;2024-03-08T13:52:02;25.63;;;20.23;;
22715;SDS011;11525;51.152;4.456;2024-03-08T13:54:29;24.98;;;20.02;;
22715;SDS011;11525;51.152;4.456;2024-03-08T13:56:56;27.13;;;20.05;;
22715;SDS011;11525;51.152;4.456;2024-03-08T13:59:23;24.77;;;19.83;;
22715;SDS011;11525;51.152;4.456;2024-03-08T14:01:49;24.25;;;19.42;;
22715;SDS011;11525;51.152;4.456;2024-03-08T14:04:15;23.42;;;19.15;;
22715;SDS011;11525;51.152;4.456;2024-03-08T14:06:42;24.00;;;18.27;;
22715;SDS011;11525;51.152;4.456;2024-03-08T14:09:10;27.00;;;19.63;;
22715;SDS011;11525;51.152;4.456;2024-03-08T14:11:44;27.08;;;18.75;;
22715;SDS011;11525;51.152;4.456;2024-03-08T14:14:10;23.90;;;19.40;;
22715;SDS011;11525;51.152;4.456;2024-03-08T14:16:39;23.92;;;18.77;;
22715;SDS011;11525;51.152;4.456;2024-03-08T14:19:05;24.05;;;18.90;;
22715;SDS011;11525;51.152;4.456;2024-03-08T14:21:31;27.55;;;19.73;;
22715;SDS011;11525;51.152;4.456;2024-03-08T14:23:58;25.42;;;18.52;;
22715;SDS011;11525;51.152;4.456;2024-03-08T14:26:23;24.63;;;18.30;;
22715;SDS011;11525;51.152;4.456;2024-03-08T14:28:49;29.55;;;19.67;;
22715;SDS011;11525;51.152;4.456;2024-03-08T14:31:20;22.85;;;17.10;;
22715;SDS011;11525;51.152;4.456;2024-03-08T14:33:48;24.83;;;18.40;;
22715;SDS011;11525;51.152;4.456;2024-03-08T14:36:14;25.38;;;18.88;;